sensor_id;sensor_type;location;lat;lon;timestamp;P1;durP1;ratioP1;P2;durP2;ratioP2
38399;SDS011;24180;42.676;23.320;2022-10-16T00:01:15;22.80;;;16.30;;
38399;SDS011;24180;42.676;23.320;2022-10-16T00:03:42;22.70;;;16.70;;
38399;SDS011;24180;42.676;23.320;2022-10-16T00:06:09;22.57;;;17.10;;
38399;SDS011;24180;42.676;23.320;2022-10-16T00:08:36;21.17;;;16.90;;
38399;SDS011;24180;42.676;23.320;2022-10-16T00:11:03;24.27;;;17.47;;
38399;SDS011;24180;42.676;23.320;2022-10-16T00:13:31;21.00;;;16.63;;
38399;SDS011;24180;42.676;23.320;2022-10-16T00:15:58;23.03;;;18.23;;
38399;SDS011;24180;42.676;23.320;2022-10-16T00:18:24;23.23;;;18.53;;
38399;SDS011;24180;42.676;23.320;2022-10-16T00:20:51;22.17;;;17.93;;
38399;SDS011;24180;42.676;23.320;2022-10-16T00:23:16;19.53;;;16.63;;
38399;SDS011;24180;42.676;23.320;2022-10-16T00:25:43;25.23;;;17.80;;
38399;SDS011;24180;42.676;23.320;2022-10-16T00:28:09;20.90;;;17.37;;
38399;SDS011;24180;42.676;23.320;2022-10-16T00:30:37;24.00;;;17.33;;
38399;SDS011;24180;42.676;23.320;2022-10-16T00:33:03;21.07;;;16.23;;
38399;SDS011;24180;42.676;23.320;2022-10-16T00:35:30;20.73;;;15.87;;
38399;SDS011;24180;42.676;23.320;2022-10-16T00:37:57;21.00;;;15.80;;
38399;SDS011;24180;42.676;23.320;2022-10-16T00:40:23;17.90;;;15.77;;
38399;SDS011;24180;42.676;23.320;2022-10-16T00:42:48;16.10;;;13.93;;
38399;SDS011;24180;42.676;23.320;2022-10-16T00:45:14;19.67;;;15.20;;
38399;SDS011;24180;42.676;23.320;2022-10-16T00:47:41;18.60;;;13.93;;
38399;SDS011;24180;42.676;23.320;2022-10-16T00:50:13;18.07;;;13.77;;
38399;SDS011;24180;42.676;23.320;2022-10-16T00:52:47;17.30;;;13.47;;
38399;SDS011;24180;42.676;23.320;2022-10-16T00:55:15;17.07;;;14.00;;
38399;SDS011;24180;42.676;23.320;2022-10-16T00:57:41;18.27;;;13.87;;
38399;SDS011;24180;42.676;23.320;2022-10-16T01:00:09;17.87;;;12.77;;
38399;SDS011;24180;42.676;23.320;2022-10-16T01:02:39;15.37;;;12.33;;
38399;SDS011;24180;42.676;23.320;2022-10-16T01:05:04;14.40;;;12.13;;
38399;SDS011;24180;42.676;23.320;2022-10-16T01:07:40;15.43;;;13.13;;
38399;SDS011;24180;42.676;23.320;2022-10-16T01:15:27;20.13;;;16.57;;
38399;SDS011;24180;42.676;23.320;2022-10-16T01:20:35;18.13;;;14.90;;
38399;SDS011;24180;42.676;23.320;2022-10-16T01:28:26;19.70;;;14.57;;
38399;SDS011;24180;42.676;23.320;2022-10-16T01:30:58;18.63;;;14.90;;
38399;SDS011;24180;42.676;23.320;2022-10-16T01:33:28;15.03;;;13.23;;
38399;SDS011;24180;42.676;23.320;2022-10-16T01:36:02;19.13;;;14.13;;
38399;SDS011;24180;42.676;23.320;2022-10-16T01:38:36;19.90;;;14.83;;
38399;SDS011;24180;42.676;23.320;2022-10-16T01:41:06;22.83;;;15.97;;
38399;SDS011;24180;42.676;23.320;2022-10-16T01:43:57;18.40;;;14.63;;
38399;SDS011;24180;42.676;23.320;2022-10-16T01:46:36;14.07;;;12.23;;
38399;SDS011;24180;42.676;23.320;2022-10-16T01:49:03;16.90;;;12.23;;
38399;SDS011;24180;42.676;23.320;2022-10-16T01:51:31;16.20;;;12.57;;
38399;SDS011;24180;42.676;23.320;2022-10-16T01:53:59;17.37;;;13.27;;
38399;SDS011;24180;42.676;23.320;2022-10-16T01:56:26;20.07;;;15.27;;
38399;SDS011;24180;42.676;23.320;2022-10-16T01:58:58;19.17;;;15.53;;
38399;SDS011;24180;42.676;23.320;2022-10-16T02:01:28;19.90;;;15.50;;
38399;SDS011;24180;42.676;23.320;2022-10-16T02:03:56;19.40;;;16.10;;
38399;SDS011;24180;42.676;23.320;2022-10-16T02:06:26;25.10;;;20.43;;
38399;SDS011;24180;42.676;23.320;2022-10-16T02:08:53;21.40;;;17.50;;
38399;SDS011;24180;42.676;23.320;2022-10-16T02:11:18;21.90;;;16.47;;
38399;SDS011;24180;42.676;23.320;2022-10-16T02:13:48;21.33;;;17.33;;
38399;SDS011;24180;42.676;23.320;2022-10-16T02:16:19;23.43;;;18.10;;
38399;SDS011;24180;42.676;23.320;2022-10-16T02:18:44;26.30;;;19.43;;
38399;SDS011;24180;42.676;23.320;2022-10-16T02:29:46;25.53;;;18.10;;
38399;SDS011;24180;42.676;23.320;2022-10-16T02:32:17;22.77;;;17.03;;
38399;SDS011;24180;42.676;23.320;2022-10-16T02:34:46;19.93;;;15.20;;
38399;SDS011;24180;42.676;23.320;2022-10-16T02:37:14;18.23;;;15.27;;
38399;SDS011;24180;42.676;23.320;2022-10-16T02:39:42;19.50;;;14.63;;
38399;SDS011;24180;42.676;23.320;2022-10-16T02:42:13;17.87;;;14.70;;
38399;SDS011;24180;42.676;23.320;2022-10-16T02:44:39;16.47;;;13.37;;
38399;SDS011;24180;42.676;23.320;2022-10-16T02:47:05;18.27;;;13.83;;
38399;SDS011;24180;42.676;23.320;2022-10-16T02:49:30;20.47;;;13.23;;
38399;SDS011;24180;42.676;23.320;2022-10-16T02:51:56;16.30;;;13.70;;
38399;SDS011;24180;42.676;23.320;2022-10-16T02:54:21;21.17;;;14.60;;
38399;SDS011;24180;42.676;23.320;2022-10-16T02:56:47;16.70;;;14.90;;
38399;SDS011;24180;42.676;23.320;2022-10-16T02:59:12;17.13;;;14.07;;
38399;SDS011;24180;42.676;23.320;2022-10-16T03:01:38;20.37;;;14.90;;
38399;SDS011;24180;42.676;23.320;2022-10-16T03:04:03;18.20;;;13.27;;
38399;SDS011;24180;42.676;23.320;2022-10-16T03:06:29;19.60;;;15.77;;
38399;SDS011;24180;42.676;23.320;2022-10-16T03:08:54;20.30;;;14.77;;
38399;SDS011;24180;42.676;23.320;2022-10-16T03:11:20;19.13;;;14.20;;
38399;SDS011;24180;42.676;23.320;2022-10-16T03:13:45;21.37;;;14.43;;
38399;SDS011;24180;42.676;23.320;2022-10-16T03:16:11;16.07;;;13.63;;
38399;SDS011;24180;42.676;23.320;2022-10-16T03:18:36;19.50;;;14.40;;
38399;SDS011;24180;42.676;23.320;2022-10-16T03:21:02;17.27;;;13.87;;
38399;SDS011;24180;42.676;23.320;2022-10-16T03:23:27;17.07;;;13.00;;
38399;SDS011;24180;42.676;23.320;2022-10-16T03:25:54;16.57;;;12.63;;
38399;SDS011;24180;42.676;23.320;2022-10-16T03:28:19;17.83;;;13.23;;
38399;SDS011;24180;42.676;23.320;2022-10-16T03:30:45;14.27;;;12.70;;
38399;SDS011;24180;42.676;23.320;2022-10-16T03:33:10;15.60;;;12.10;;
38399;SDS011;24180;42.676;23.320;2022-10-16T03:35:36;15.73;;;12.77;;
38399;SDS011;24180;42.676;23.320;2022-10-16T03:38:01;15.40;;;12.57;;
38399;SDS011;24180;42.676;23.320;2022-10-16T03:40:27;17.17;;;12.93;;
38399;SDS011;24180;42.676;23.320;2022-10-16T03:42:52;25.47;;;18.37;;
38399;SDS011;24180;42.676;23.320;2022-10-16T03:45:20;17.27;;;11.93;;
38399;SDS011;24180;42.676;23.320;2022-10-16T03:47:47;18.27;;;13.23;;
38399;SDS011;24180;42.676;23.320;2022-10-16T03:50:12;17.93;;;14.30;;
38399;SDS011;24180;42.676;23.320;2022-10-16T03:52:38;17.97;;;13.80;;
38399;SDS011;24180;42.676;23.320;2022-10-16T03:55:03;16.77;;;13.93;;
38399;SDS011;24180;42.676;23.320;2022-10-16T03:57:29;17.30;;;13.77;;
38399;SDS011;24180;42.676;23.320;2022-10-16T03:59:54;22.60;;;15.17;;
38399;SDS011;24180;42.676;23.320;2022-10-16T04:02:20;22.30;;;17.77;;
38399;SDS011;24180;42.676;23.320;2022-10-16T04:04:45;20.83;;;16.80;;
38399;SDS011;24180;42.676;23.320;2022-10-16T04:07:10;22.00;;;16.93;;
38399;SDS011;24180;42.676;23.320;2022-10-16T04:09:36;21.40;;;15.57;;
38399;SDS011;24180;42.676;23.320;2022-10-16T04:12:01;18.00;;;14.63;;
38399;SDS011;24180;42.676;23.320;2022-10-16T04:14:27;20.70;;;15.47;;
38399;SDS011;24180;42.676;23.320;2022-10-16T04:16:52;20.50;;;15.63;;
38399;SDS011;24180;42.676;23.320;2022-10-16T04:19:18;22.17;;;15.53;;
38399;SDS011;24180;42.676;23.320;2022-10-16T04:21:43;15.60;;;13.37;;
38399;SDS011;24180;42.676;23.320;2022-10-16T04:24:09;19.37;;;13.83;;
38399;SDS011;24180;42.676;23.320;2022-10-16T04:26:37;14.87;;;13.17;;
38399;SDS011;24180;42.676;23.320;2022-10-16T04:29:03;15.53;;;13.43;;
38399;SDS011;24180;42.676;23.320;2022-10-16T04:31:28;17.40;;;13.00;;
38399;SDS011;24180;42.676;23.320;2022-10-16T04:33:54;20.97;;;13.53;;
38399;SDS011;24180;42.676;23.320;2022-10-16T04:36:20;17.13;;;12.83;;
38399;SDS011;24180;42.676;23.320;2022-10-16T04:38:45;16.20;;;13.47;;
38399;SDS011;24180;42.676;23.320;2022-10-16T04:41:10;18.00;;;13.37;;
38399;SDS011;24180;42.676;23.320;2022-10-16T04:43:36;19.80;;;14.27;;
38399;SDS011;24180;42.676;23.320;2022-10-16T04:46:01;15.50;;;12.77;;
38399;SDS011;24180;42.676;23.320;2022-10-16T04:48:29;21.07;;;13.17;;
38399;SDS011;24180;42.676;23.320;2022-10-16T04:50:55;17.63;;;13.57;;
38399;SDS011;24180;42.676;23.320;2022-10-16T04:53:20;17.83;;;13.50;;
38399;SDS011;24180;42.676;23.320;2022-10-16T04:55:46;17.63;;;14.43;;
38399;SDS011;24180;42.676;23.320;2022-10-16T04:58:12;18.17;;;13.57;;
38399;SDS011;24180;42.676;23.320;2022-10-16T05:00:37;17.47;;;13.83;;
38399;SDS011;24180;42.676;23.320;2022-10-16T05:03:03;16.60;;;13.23;;
38399;SDS011;24180;42.676;23.320;2022-10-16T05:05:32;21.07;;;14.43;;
38399;SDS011;24180;42.676;23.320;2022-10-16T05:07:58;17.90;;;13.50;;
38399;SDS011;24180;42.676;23.320;2022-10-16T05:10:24;18.73;;;13.63;;
38399;SDS011;24180;42.676;23.320;2022-10-16T05:12:49;17.17;;;13.90;;
38399;SDS011;24180;42.676;23.320;2022-10-16T05:15:16;15.50;;;13.90;;
38399;SDS011;24180;42.676;23.320;2022-10-16T05:17:41;21.00;;;15.10;;
38399;SDS011;24180;42.676;23.320;2022-10-16T05:20:07;17.20;;;12.83;;
38399;SDS011;24180;42.676;23.320;2022-10-16T05:22:33;18.53;;;14.07;;
38399;SDS011;24180;42.676;23.320;2022-10-16T05:24:58;16.07;;;13.40;;
38399;SDS011;24180;42.676;23.320;2022-10-16T05:27:24;18.13;;;14.07;;
38399;SDS011;24180;42.676;23.320;2022-10-16T05:29:49;18.23;;;13.90;;
38399;SDS011;24180;42.676;23.320;2022-10-16T05:32:15;18.17;;;13.50;;
38399;SDS011;24180;42.676;23.320;2022-10-16T05:34:41;16.10;;;12.33;;
38399;SDS011;24180;42.676;23.320;2022-10-16T05:37:07;20.80;;;13.57;;
38399;SDS011;24180;42.676;23.320;2022-10-16T05:39:32;21.47;;;13.17;;
38399;SDS011;24180;42.676;23.320;2022-10-16T05:41:58;17.43;;;14.47;;
38399;SDS011;24180;42.676;23.320;2022-10-16T05:44:23;15.57;;;13.17;;
38399;SDS011;24180;42.676;23.320;2022-10-16T05:46:49;16.70;;;13.57;;
38399;SDS011;24180;42.676;23.320;2022-10-16T05:49:14;20.60;;;13.57;;
38399;SDS011;24180;42.676;23.320;2022-10-16T05:51:40;18.27;;;13.27;;
38399;SDS011;24180;42.676;23.320;2022-10-16T05:54:07;19.97;;;13.10;;
38399;SDS011;24180;42.676;23.320;2022-10-16T05:56:33;19.27;;;13.03;;
38399;SDS011;24180;42.676;23.320;2022-10-16T05:58:58;14.93;;;12.97;;
38399;SDS011;24180;42.676;23.320;2022-10-16T06:01:23;17.20;;;13.37;;
38399;SDS011;24180;42.676;23.320;2022-10-16T06:03:58;15.70;;;12.83;;
38399;SDS011;24180;42.676;23.320;2022-10-16T06:06:25;14.43;;;12.90;;
38399;SDS011;24180;42.676;23.320;2022-10-16T06:08:52;16.33;;;12.80;;
38399;SDS011;24180;42.676;23.320;2022-10-16T06:11:20;15.77;;;12.70;;
38399;SDS011;24180;42.676;23.320;2022-10-16T06:13:51;17.10;;;13.20;;
38399;SDS011;24180;42.676;23.320;2022-10-16T06:16:18;18.50;;;13.50;;
38399;SDS011;24180;42.676;23.320;2022-10-16T06:18:43;16.27;;;12.87;;
38399;SDS011;24180;42.676;23.320;2022-10-16T06:21:14;15.00;;;13.40;;
38399;SDS011;24180;42.676;23.320;2022-10-16T06:23:43;17.83;;;13.37;;
38399;SDS011;24180;42.676;23.320;2022-10-16T06:26:11;18.70;;;13.33;;
38399;SDS011;24180;42.676;23.320;2022-10-16T06:28:39;14.77;;;13.00;;
38399;SDS011;24180;42.676;23.320;2022-10-16T06:31:05;15.80;;;13.30;;
38399;SDS011;24180;42.676;23.320;2022-10-16T06:33:32;15.93;;;13.73;;
38399;SDS011;24180;42.676;23.320;2022-10-16T06:36:01;15.17;;;13.57;;
38399;SDS011;24180;42.676;23.320;2022-10-16T06:38:30;17.67;;;13.90;;
38399;SDS011;24180;42.676;23.320;2022-10-16T06:40:56;18.00;;;13.03;;
38399;SDS011;24180;42.676;23.320;2022-10-16T06:43:22;15.67;;;13.87;;
38399;SDS011;24180;42.676;23.320;2022-10-16T06:45:51;20.70;;;14.63;;
38399;SDS011;24180;42.676;23.320;2022-10-16T06:48:21;18.53;;;13.63;;
38399;SDS011;24180;42.676;23.320;2022-10-16T06:50:57;15.27;;;13.63;;
38399;SDS011;24180;42.676;23.320;2022-10-16T06:53:32;22.57;;;14.33;;
38399;SDS011;24180;42.676;23.320;2022-10-16T06:56:15;16.07;;;13.80;;
38399;SDS011;24180;42.676;23.320;2022-10-16T06:58:46;20.00;;;13.10;;
38399;SDS011;24180;42.676;23.320;2022-10-16T07:01:12;21.00;;;13.70;;
38399;SDS011;24180;42.676;23.320;2022-10-16T07:03:39;17.00;;;14.20;;
38399;SDS011;24180;42.676;23.320;2022-10-16T07:06:07;25.23;;;14.20;;
38399;SDS011;24180;42.676;23.320;2022-10-16T07:08:34;15.77;;;13.67;;
38399;SDS011;24180;42.676;23.320;2022-10-16T07:11:05;14.37;;;12.93;;
38399;SDS011;24180;42.676;23.320;2022-10-16T07:13:33;16.60;;;13.60;;
38399;SDS011;24180;42.676;23.320;2022-10-16T07:16:06;18.87;;;14.20;;
38399;SDS011;24180;42.676;23.320;2022-10-16T07:18:34;16.40;;;14.10;;
38399;SDS011;24180;42.676;23.320;2022-10-16T07:21:04;15.57;;;13.50;;
38399;SDS011;24180;42.676;23.320;2022-10-16T07:23:30;16.60;;;13.90;;
38399;SDS011;24180;42.676;23.320;2022-10-16T07:25:55;17.27;;;14.00;;
38399;SDS011;24180;42.676;23.320;2022-10-16T07:28:21;21.40;;;15.33;;
38399;SDS011;24180;42.676;23.320;2022-10-16T07:30:47;18.57;;;15.73;;
38399;SDS011;24180;42.676;23.320;2022-10-16T07:33:12;18.07;;;15.07;;
38399;SDS011;24180;42.676;23.320;2022-10-16T07:35:46;17.50;;;14.93;;
38399;SDS011;24180;42.676;23.320;2022-10-16T07:38:16;19.67;;;14.93;;
38399;SDS011;24180;42.676;23.320;2022-10-16T07:40:41;19.20;;;13.90;;
38399;SDS011;24180;42.676;23.320;2022-10-16T07:43:07;16.83;;;14.23;;
38399;SDS011;24180;42.676;23.320;2022-10-16T07:45:32;16.73;;;14.33;;
38399;SDS011;24180;42.676;23.320;2022-10-16T07:47:58;15.97;;;14.27;;
38399;SDS011;24180;42.676;23.320;2022-10-16T07:50:23;15.77;;;14.03;;
38399;SDS011;24180;42.676;23.320;2022-10-16T07:52:48;19.07;;;15.40;;
38399;SDS011;24180;42.676;23.320;2022-10-16T07:55:14;16.30;;;13.33;;
38399;SDS011;24180;42.676;23.320;2022-10-16T07:57:39;14.17;;;12.73;;
38399;SDS011;24180;42.676;23.320;2022-10-16T08:00:05;14.87;;;12.50;;
38399;SDS011;24180;42.676;23.320;2022-10-16T08:02:31;13.97;;;12.57;;
38399;SDS011;24180;42.676;23.320;2022-10-16T08:04:57;15.80;;;11.30;;
38399;SDS011;24180;42.676;23.320;2022-10-16T08:07:22;12.37;;;11.07;;
38399;SDS011;24180;42.676;23.320;2022-10-16T08:09:51;13.40;;;10.43;;
38399;SDS011;24180;42.676;23.320;2022-10-16T08:12:17;12.27;;;10.40;;
38399;SDS011;24180;42.676;23.320;2022-10-16T08:14:43;11.33;;;10.17;;
38399;SDS011;24180;42.676;23.320;2022-10-16T08:17:08;12.53;;;9.93;;
38399;SDS011;24180;42.676;23.320;2022-10-16T08:19:33;14.30;;;9.53;;
38399;SDS011;24180;42.676;23.320;2022-10-16T08:22:00;10.23;;;9.23;;
38399;SDS011;24180;42.676;23.320;2022-10-16T08:24:26;18.43;;;9.00;;
38399;SDS011;24180;42.676;23.320;2022-10-16T08:26:53;10.33;;;8.20;;
38399;SDS011;24180;42.676;23.320;2022-10-16T08:29:19;12.90;;;8.20;;
38399;SDS011;24180;42.676;23.320;2022-10-16T08:31:45;25.27;;;16.10;;
38399;SDS011;24180;42.676;23.320;2022-10-16T08:34:10;9.23;;;7.20;;
38399;SDS011;24180;42.676;23.320;2022-10-16T08:36:35;8.87;;;7.97;;
38399;SDS011;24180;42.676;23.320;2022-10-16T08:39:01;8.57;;;7.63;;
38399;SDS011;24180;42.676;23.320;2022-10-16T08:50:02;9.27;;;7.40;;
38399;SDS011;24180;42.676;23.320;2022-10-16T08:52:35;17.70;;;13.47;;
38399;SDS011;24180;42.676;23.320;2022-10-16T08:55:05;8.03;;;7.07;;
38399;SDS011;24180;42.676;23.320;2022-10-16T08:57:32;7.50;;;6.80;;
38399;SDS011;24180;42.676;23.320;2022-10-16T08:59:59;8.50;;;6.00;;
38399;SDS011;24180;42.676;23.320;2022-10-16T09:10:38;6.10;;;5.50;;
38399;SDS011;24180;42.676;23.320;2022-10-16T09:18:48;6.57;;;5.97;;
38399;SDS011;24180;42.676;23.320;2022-10-16T09:21:42;5.40;;;4.80;;
38399;SDS011;24180;42.676;23.320;2022-10-16T09:24:16;6.93;;;5.10;;
38399;SDS011;24180;42.676;23.320;2022-10-16T09:26:44;13.67;;;11.70;;
38399;SDS011;24180;42.676;23.320;2022-10-16T09:29:11;7.70;;;5.67;;
38399;SDS011;24180;42.676;23.320;2022-10-16T09:31:37;7.10;;;5.80;;
38399;SDS011;24180;42.676;23.320;2022-10-16T09:34:03;7.40;;;5.60;;
38399;SDS011;24180;42.676;23.320;2022-10-16T09:36:33;9.33;;;5.50;;
38399;SDS011;24180;42.676;23.320;2022-10-16T09:39:07;6.07;;;5.60;;
38399;SDS011;24180;42.676;23.320;2022-10-16T09:41:35;9.32;;;6.88;;
38399;SDS011;24180;42.676;23.320;2022-10-16T09:44:04;6.30;;;5.70;;
38399;SDS011;24180;42.676;23.320;2022-10-16T09:46:44;6.70;;;6.03;;
38399;SDS011;24180;42.676;23.320;2022-10-16T09:51:48;7.15;;;6.55;;
38399;SDS011;24180;42.676;23.320;2022-10-16T09:54:17;7.13;;;6.60;;
38399;SDS011;24180;42.676;23.320;2022-10-16T09:56:44;26.67;;;24.27;;
38399;SDS011;24180;42.676;23.320;2022-10-16T09:59:18;7.85;;;5.82;;
38399;SDS011;24180;42.676;23.320;2022-10-16T10:01:46;9.63;;;8.85;;
38399;SDS011;24180;42.676;23.320;2022-10-16T10:04:14;20.38;;;18.77;;
38399;SDS011;24180;42.676;23.320;2022-10-16T10:06:46;21.02;;;19.23;;
38399;SDS011;24180;42.676;23.320;2022-10-16T10:11:54;6.03;;;5.53;;
38399;SDS011;24180;42.676;23.320;2022-10-16T10:19:46;13.18;;;12.18;;
38399;SDS011;24180;42.676;23.320;2022-10-16T10:24:54;9.10;;;8.48;;
38399;SDS011;24180;42.676;23.320;2022-10-16T10:51:58;5.35;;;4.95;;
38399;SDS011;24180;42.676;23.320;2022-10-16T10:54:50;6.03;;;5.45;;
38399;SDS011;24180;42.676;23.320;2022-10-16T10:57:48;5.82;;;5.43;;
38399;SDS011;24180;42.676;23.320;2022-10-16T11:00:20;5.88;;;5.00;;
38399;SDS011;24180;42.676;23.320;2022-10-16T11:06:02;5.53;;;5.03;;
38399;SDS011;24180;42.676;23.320;2022-10-16T11:08:30;5.15;;;4.65;;
38399;SDS011;24180;42.676;23.320;2022-10-16T11:11:02;5.00;;;4.60;;
38399;SDS011;24180;42.676;23.320;2022-10-16T11:13:35;5.20;;;4.80;;
38399;SDS011;24180;42.676;23.320;2022-10-16T11:16:23;5.78;;;5.28;;
38399;SDS011;24180;42.676;23.320;2022-10-16T11:18:59;5.20;;;4.72;;
38399;SDS011;24180;42.676;23.320;2022-10-16T11:21:26;4.75;;;4.47;;
38399;SDS011;24180;42.676;23.320;2022-10-16T11:23:58;6.18;;;5.57;;
38399;SDS011;24180;42.676;23.320;2022-10-16T11:26:27;5.35;;;4.65;;
38399;SDS011;24180;42.676;23.320;2022-10-16T11:28:56;5.57;;;5.15;;
38399;SDS011;24180;42.676;23.320;2022-10-16T11:31:36;5.93;;;5.35;;
38399;SDS011;24180;42.676;23.320;2022-10-16T11:36:49;6.70;;;6.10;;
38399;SDS011;24180;42.676;23.320;2022-10-16T11:39:28;6.07;;;5.57;;
38399;SDS011;24180;42.676;23.320;2022-10-16T11:44:48;7.45;;;6.75;;
38399;SDS011;24180;42.676;23.320;2022-10-16T11:47:34;6.70;;;6.15;;
38399;SDS011;24180;42.676;23.320;2022-10-16T11:53:04;5.03;;;4.60;;
38399;SDS011;24180;42.676;23.320;2022-10-16T11:58:20;5.60;;;5.15;;
38399;SDS011;24180;42.676;23.320;2022-10-16T12:03:42;5.25;;;4.63;;
38399;SDS011;24180;42.676;23.320;2022-10-16T12:09:00;5.15;;;4.75;;
38399;SDS011;24180;42.676;23.320;2022-10-16T12:13:52;5.55;;;5.10;;
38399;SDS011;24180;42.676;23.320;2022-10-16T12:16:32;5.35;;;4.90;;
38399;SDS011;24180;42.676;23.320;2022-10-16T12:19:10;4.70;;;4.30;;
38399;SDS011;24180;42.676;23.320;2022-10-16T12:21:40;4.60;;;4.30;;
38399;SDS011;24180;42.676;23.320;2022-10-16T12:24:18;4.75;;;4.30;;
38399;SDS011;24180;42.676;23.320;2022-10-16T12:27:27;5.43;;;4.97;;
38399;SDS011;24180;42.676;23.320;2022-10-16T12:30:04;4.93;;;4.53;;
38399;SDS011;24180;42.676;23.320;2022-10-16T12:32:33;4.95;;;4.07;;
38399;SDS011;24180;42.676;23.320;2022-10-16T12:34:59;6.32;;;5.95;;
38399;SDS011;24180;42.676;23.320;2022-10-16T12:37:28;7.97;;;7.35;;
38399;SDS011;24180;42.676;23.320;2022-10-16T12:39:57;6.82;;;6.30;;
38399;SDS011;24180;42.676;23.320;2022-10-16T12:44:53;10.40;;;9.55;;
38399;SDS011;24180;42.676;23.320;2022-10-16T12:47:24;11.30;;;10.43;;
38399;SDS011;24180;42.676;23.320;2022-10-16T12:50:02;10.35;;;9.63;;
38399;SDS011;24180;42.676;23.320;2022-10-16T12:52:34;7.15;;;6.72;;
38399;SDS011;24180;42.676;23.320;2022-10-16T12:55:00;5.95;;;5.50;;
38399;SDS011;24180;42.676;23.320;2022-10-16T13:17:25;6.15;;;5.65;;
38399;SDS011;24180;42.676;23.320;2022-10-16T13:22:26;6.40;;;5.80;;
38399;SDS011;24180;42.676;23.320;2022-10-16T13:33:02;6.60;;;5.47;;
38399;SDS011;24180;42.676;23.320;2022-10-16T13:35:33;6.97;;;4.55;;
38399;SDS011;24180;42.676;23.320;2022-10-16T13:38:03;5.10;;;4.20;;
38399;SDS011;24180;42.676;23.320;2022-10-16T13:40:30;6.40;;;6.00;;
38399;SDS011;24180;42.676;23.320;2022-10-16T13:42:56;8.65;;;7.95;;
38399;SDS011;24180;42.676;23.320;2022-10-16T13:45:24;4.72;;;4.35;;
38399;SDS011;24180;42.676;23.320;2022-10-16T13:48:01;5.82;;;5.43;;
38399;SDS011;24180;42.676;23.320;2022-10-16T13:50:27;5.60;;;5.10;;
38399;SDS011;24180;42.676;23.320;2022-10-16T13:53:03;10.25;;;9.45;;
38399;SDS011;24180;42.676;23.320;2022-10-16T13:55:32;7.38;;;6.78;;
38399;SDS011;24180;42.676;23.320;2022-10-16T13:58:14;12.25;;;11.45;;
38399;SDS011;24180;42.676;23.320;2022-10-16T14:00:40;9.27;;;8.55;;
38399;SDS011;24180;42.676;23.320;2022-10-16T14:03:17;8.85;;;8.35;;
38399;SDS011;24180;42.676;23.320;2022-10-16T14:05:49;6.03;;;5.45;;
38399;SDS011;24180;42.676;23.320;2022-10-16T14:08:16;7.47;;;5.28;;
38399;SDS011;24180;42.676;23.320;2022-10-16T14:10:42;4.35;;;3.92;;
38399;SDS011;24180;42.676;23.320;2022-10-16T14:13:08;4.95;;;4.00;;
38399;SDS011;24180;42.676;23.320;2022-10-16T14:15:45;6.35;;;5.72;;
38399;SDS011;24180;42.676;23.320;2022-10-16T14:18:18;6.70;;;5.45;;
38399;SDS011;24180;42.676;23.320;2022-10-16T14:20:46;6.50;;;5.90;;
38399;SDS011;24180;42.676;23.320;2022-10-16T14:23:34;4.53;;;4.13;;
38399;SDS011;24180;42.676;23.320;2022-10-16T14:26:21;8.00;;;6.72;;
38399;SDS011;24180;42.676;23.320;2022-10-16T14:28:49;5.32;;;4.95;;
38399;SDS011;24180;42.676;23.320;2022-10-16T14:31:30;6.28;;;4.78;;
38399;SDS011;24180;42.676;23.320;2022-10-16T14:33:58;6.77;;;6.20;;
38399;SDS011;24180;42.676;23.320;2022-10-16T14:36:24;13.87;;;4.57;;
38399;SDS011;24180;42.676;23.320;2022-10-16T14:38:58;5.33;;;4.40;;
38399;SDS011;24180;42.676;23.320;2022-10-16T14:41:44;4.77;;;4.47;;
38399;SDS011;24180;42.676;23.320;2022-10-16T14:44:12;7.30;;;6.00;;
38399;SDS011;24180;42.676;23.320;2022-10-16T14:46:39;4.57;;;4.17;;
38399;SDS011;24180;42.676;23.320;2022-10-16T14:51:35;8.17;;;5.27;;
38399;SDS011;24180;42.676;23.320;2022-10-16T14:54:07;5.97;;;5.47;;
38399;SDS011;24180;42.676;23.320;2022-10-16T14:56:35;8.43;;;6.47;;
38399;SDS011;24180;42.676;23.320;2022-10-16T14:59:07;5.50;;;5.03;;
38399;SDS011;24180;42.676;23.320;2022-10-16T15:01:39;6.80;;;5.00;;
38399;SDS011;24180;42.676;23.320;2022-10-16T15:04:07;5.50;;;4.53;;
38399;SDS011;24180;42.676;23.320;2022-10-16T15:06:34;5.33;;;4.83;;
38399;SDS011;24180;42.676;23.320;2022-10-16T15:08:59;5.00;;;4.60;;
38399;SDS011;24180;42.676;23.320;2022-10-16T15:11:25;6.20;;;4.70;;
38399;SDS011;24180;42.676;23.320;2022-10-16T15:13:50;4.70;;;4.30;;
38399;SDS011;24180;42.676;23.320;2022-10-16T15:16:16;5.67;;;4.90;;
38399;SDS011;24180;42.676;23.320;2022-10-16T15:18:41;6.00;;;4.90;;
38399;SDS011;24180;42.676;23.320;2022-10-16T15:21:08;5.50;;;5.00;;
38399;SDS011;24180;42.676;23.320;2022-10-16T15:23:42;5.30;;;4.27;;
38399;SDS011;24180;42.676;23.320;2022-10-16T15:26:08;4.60;;;4.20;;
38399;SDS011;24180;42.676;23.320;2022-10-16T15:28:33;6.93;;;4.97;;
38399;SDS011;24180;42.676;23.320;2022-10-16T15:31:01;6.20;;;4.40;;
38399;SDS011;24180;42.676;23.320;2022-10-16T15:33:29;9.47;;;5.37;;
38399;SDS011;24180;42.676;23.320;2022-10-16T15:35:58;4.70;;;4.13;;
38399;SDS011;24180;42.676;23.320;2022-10-16T15:38:23;5.77;;;4.33;;
38399;SDS011;24180;42.676;23.320;2022-10-16T15:40:49;6.53;;;5.30;;
38399;SDS011;24180;42.676;23.320;2022-10-16T15:43:15;7.57;;;5.27;;
38399;SDS011;24180;42.676;23.320;2022-10-16T15:45:42;5.83;;;4.60;;
38399;SDS011;24180;42.676;23.320;2022-10-16T15:48:10;7.90;;;4.63;;
38399;SDS011;24180;42.676;23.320;2022-10-16T15:50:37;5.53;;;4.90;;
38399;SDS011;24180;42.676;23.320;2022-10-16T15:53:03;5.07;;;4.60;;
38399;SDS011;24180;42.676;23.320;2022-10-16T15:55:29;6.60;;;4.63;;
38399;SDS011;24180;42.676;23.320;2022-10-16T15:57:54;7.73;;;4.90;;
38399;SDS011;24180;42.676;23.320;2022-10-16T16:00:20;6.57;;;5.13;;
38399;SDS011;24180;42.676;23.320;2022-10-16T16:02:50;6.47;;;4.67;;
38399;SDS011;24180;42.676;23.320;2022-10-16T16:05:17;5.47;;;4.70;;
38399;SDS011;24180;42.676;23.320;2022-10-16T16:07:43;5.40;;;4.90;;
38399;SDS011;24180;42.676;23.320;2022-10-16T16:10:10;5.40;;;4.90;;
38399;SDS011;24180;42.676;23.320;2022-10-16T16:12:36;6.53;;;5.40;;
38399;SDS011;24180;42.676;23.320;2022-10-16T16:15:06;7.93;;;5.10;;
38399;SDS011;24180;42.676;23.320;2022-10-16T16:17:33;7.57;;;5.20;;
38399;SDS011;24180;42.676;23.320;2022-10-16T16:20:00;7.90;;;4.87;;
38399;SDS011;24180;42.676;23.320;2022-10-16T16:22:26;6.43;;;5.20;;
38399;SDS011;24180;42.676;23.320;2022-10-16T16:24:52;6.73;;;5.43;;
38399;SDS011;24180;42.676;23.320;2022-10-16T16:27:18;7.73;;;5.10;;
38399;SDS011;24180;42.676;23.320;2022-10-16T16:29:44;8.17;;;5.40;;
38399;SDS011;24180;42.676;23.320;2022-10-16T16:32:10;10.77;;;6.13;;
38399;SDS011;24180;42.676;23.320;2022-10-16T16:34:36;14.50;;;6.37;;
38399;SDS011;24180;42.676;23.320;2022-10-16T16:37:01;6.60;;;5.90;;
38399;SDS011;24180;42.676;23.320;2022-10-16T16:39:27;11.67;;;5.90;;
38399;SDS011;24180;42.676;23.320;2022-10-16T16:41:52;8.37;;;5.80;;
38399;SDS011;24180;42.676;23.320;2022-10-16T16:44:21;8.20;;;6.30;;
38399;SDS011;24180;42.676;23.320;2022-10-16T16:46:46;9.30;;;8.00;;